sensor_id;sensor_type;location;lat;lon;timestamp;temperature;humidity
25436;DHT22;13363;52.772;-3.890;2023-08-30T00:00:52;14.00;99.90
25436;DHT22;13363;52.772;-3.890;2023-08-30T00:03:18;14.10;99.90
25436;DHT22;13363;52.772;-3.890;2023-08-30T00:05:44;14.00;99.90
25436;DHT22;13363;52.772;-3.890;2023-08-30T00:08:10;14.10;99.90
25436;DHT22;13363;52.772;-3.890;2023-08-30T00:10:39;14.10;99.90
25436;DHT22;13363;52.772;-3.890;2023-08-30T00:13:05;14.10;99.90
25436;DHT22;13363;52.772;-3.890;2023-08-30T00:20:23;14.20;99.90
25436;DHT22;13363;52.772;-3.890;2023-08-30T00:22:49;14.40;99.90
25436;DHT22;13363;52.772;-3.890;2023-08-30T00:25:15;14.40;99.90
25436;DHT22;13363;52.772;-3.890;2023-08-30T00:27:41;14.40;99.90
25436;DHT22;13363;52.772;-3.890;2023-08-30T00:30:08;14.30;99.90
25436;DHT22;13363;52.772;-3.890;2023-08-30T00:32:35;14.30;99.90
25436;DHT22;13363;52.772;-3.890;2023-08-30T00:35:01;14.30;99.90
25436;DHT22;13363;52.772;-3.890;2023-08-30T00:37:27;14.60;99.90
25436;DHT22;13363;52.772;-3.890;2023-08-30T00:39:53;14.30;99.90
25436;DHT22;13363;52.772;-3.890;2023-08-30T00:42:19;14.40;99.90
25436;DHT22;13363;52.772;-3.890;2023-08-30T00:44:45;14.30;99.90
25436;DHT22;13363;52.772;-3.890;2023-08-30T00:47:11;14.30;99.90
25436;DHT22;13363;52.772;-3.890;2023-08-30T00:49:36;14.00;99.90
25436;DHT22;13363;52.772;-3.890;2023-08-30T00:52:06;14.30;99.90
25436;DHT22;13363;52.772;-3.890;2023-08-30T00:54:33;14.30;99.90
25436;DHT22;13363;52.772;-3.890;2023-08-30T00:57:00;14.40;99.90
25436;DHT22;13363;52.772;-3.890;2023-08-30T00:59:27;14.40;99.90
25436;DHT22;13363;52.772;-3.890;2023-08-30T01:01:54;14.40;99.90
25436;DHT22;13363;52.772;-3.890;2023-08-30T01:06:47;14.40;99.90
25436;DHT22;13363;52.772;-3.890;2023-08-30T01:09:15;14.40;99.90
25436;DHT22;13363;52.772;-3.890;2023-08-30T01:14:49;14.40;99.90
25436;DHT22;13363;52.772;-3.890;2023-08-30T01:17:19;14.40;99.90
25436;DHT22;13363;52.772;-3.890;2023-08-30T01:19:57;14.40;99.90
25436;DHT22;13363;52.772;-3.890;2023-08-30T01:22:41;14.30;99.90
25436;DHT22;13363;52.772;-3.890;2023-08-30T01:25:17;14.30;99.90
25436;DHT22;13363;52.772;-3.890;2023-08-30T01:27:45;14.30;99.90
25436;DHT22;13363;52.772;-3.890;2023-08-30T01:30:13;14.20;99.90
25436;DHT22;13363;52.772;-3.890;2023-08-30T01:32:39;14.20;99.90
25436;DHT22;13363;52.772;-3.890;2023-08-30T01:35:06;14.10;99.90
25436;DHT22;13363;52.772;-3.890;2023-08-30T01:37:33;14.00;99.90
25436;DHT22;13363;52.772;-3.890;2023-08-30T01:40:02;14.10;99.90
25436;DHT22;13363;52.772;-3.890;2023-08-30T01:42:31;14.00;99.90
25436;DHT22;13363;52.772;-3.890;2023-08-30T01:44:59;13.90;99.90
25436;DHT22;13363;52.772;-3.890;2023-08-30T01:47:27;14.00;99.90
25436;DHT22;13363;52.772;-3.890;2023-08-30T01:49:54;14.00;99.90
25436;DHT22;13363;52.772;-3.890;2023-08-30T01:52:22;14.00;99.90
25436;DHT22;13363;52.772;-3.890;2023-08-30T01:54:51;13.90;99.90
25436;DHT22;13363;52.772;-3.890;2023-08-30T01:57:17;13.90;99.90
25436;DHT22;13363;52.772;-3.890;2023-08-30T01:59:43;13.90;99.90
25436;DHT22;13363;52.772;-3.890;2023-08-30T02:02:09;14.00;99.90
25436;DHT22;13363;52.772;-3.890;2023-08-30T02:04:35;14.00;99.90
25436;DHT22;13363;52.772;-3.890;2023-08-30T02:07:04;14.00;99.90
25436;DHT22;13363;52.772;-3.890;2023-08-30T02:12:03;14.00;99.90
25436;DHT22;13363;52.772;-3.890;2023-08-30T02:14:32;14.00;99.90
25436;DHT22;13363;52.772;-3.890;2023-08-30T02:16:58;14.40;99.90
25436;DHT22;13363;52.772;-3.890;2023-08-30T02:19:24;14.00;99.90
25436;DHT22;13363;52.772;-3.890;2023-08-30T02:21:50;14.00;99.90
25436;DHT22;13363;52.772;-3.890;2023-08-30T02:24:16;14.00;99.90
25436;DHT22;13363;52.772;-3.890;2023-08-30T02:26:42;14.00;99.90
25436;DHT22;13363;52.772;-3.890;2023-08-30T02:29:08;14.00;99.90
25436;DHT22;13363;52.772;-3.890;2023-08-30T02:31:35;14.00;99.90
25436;DHT22;13363;52.772;-3.890;2023-08-30T02:34:01;14.00;99.90
25436;DHT22;13363;52.772;-3.890;2023-08-30T02:36:28;14.00;99.90
25436;DHT22;13363;52.772;-3.890;2023-08-30T02:38:53;14.00;99.90
25436;DHT22;13363;52.772;-3.890;2023-08-30T02:41:19;13.90;99.90
25436;DHT22;13363;52.772;-3.890;2023-08-30T02:43:45;14.00;99.90
25436;DHT22;13363;52.772;-3.890;2023-08-30T02:46:11;14.00;99.90
25436;DHT22;13363;52.772;-3.890;2023-08-30T02:51:03;14.00;99.90
25436;DHT22;13363;52.772;-3.890;2023-08-30T02:53:28;14.00;99.90
25436;DHT22;13363;52.772;-3.890;2023-08-30T02:55:54;14.00;99.90
25436;DHT22;13363;52.772;-3.890;2023-08-30T02:58:21;14.00;99.90
25436;DHT22;13363;52.772;-3.890;2023-08-30T03:00:48;14.00;99.90
25436;DHT22;13363;52.772;-3.890;2023-08-30T03:03:13;14.00;99.90
25436;DHT22;13363;52.772;-3.890;2023-08-30T03:05:39;14.00;99.90
25436;DHT22;13363;52.772;-3.890;2023-08-30T03:08:05;14.00;99.90
25436;DHT22;13363;52.772;-3.890;2023-08-30T03:10:31;14.00;99.90
25436;DHT22;13363;52.772;-3.890;2023-08-30T03:12:57;13.90;99.90
25436;DHT22;13363;52.772;-3.890;2023-08-30T03:15:23;14.00;99.90
25436;DHT22;13363;52.772;-3.890;2023-08-30T03:17:49;14.00;99.90
25436;DHT22;13363;52.772;-3.890;2023-08-30T03:20:15;14.00;99.90
25436;DHT22;13363;52.772;-3.890;2023-08-30T03:22:41;14.00;99.90
25436;DHT22;13363;52.772;-3.890;2023-08-30T03:25:08;14.00;99.90
25436;DHT22;13363;52.772;-3.890;2023-08-30T03:27:35;14.00;99.90
25436;DHT22;13363;52.772;-3.890;2023-08-30T03:30:02;13.90;99.90
25436;DHT22;13363;52.772;-3.890;2023-08-30T03:32:28;14.00;99.90
25436;DHT22;13363;52.772;-3.890;2023-08-30T03:34:54;14.00;99.90
25436;DHT22;13363;52.772;-3.890;2023-08-30T03:37:20;13.90;99.90
25436;DHT22;13363;52.772;-3.890;2023-08-30T03:39:45;14.00;99.90
25436;DHT22;13363;52.772;-3.890;2023-08-30T03:42:11;14.00;99.90
25436;DHT22;13363;52.772;-3.890;2023-08-30T03:44:38;13.90;99.90
25436;DHT22;13363;52.772;-3.890;2023-08-30T03:47:04;13.80;99.90
25436;DHT22;13363;52.772;-3.890;2023-08-30T03:49:30;13.80;99.90
25436;DHT22;13363;52.772;-3.890;2023-08-30T03:51:56;13.80;99.90
25436;DHT22;13363;52.772;-3.890;2023-08-30T03:54:22;13.70;99.90
25436;DHT22;13363;52.772;-3.890;2023-08-30T03:56:48;13.70;99.90
25436;DHT22;13363;52.772;-3.890;2023-08-30T03:59:14;13.70;99.90
25436;DHT22;13363;52.772;-3.890;2023-08-30T04:01:39;13.70;99.90
25436;DHT22;13363;52.772;-3.890;2023-08-30T04:04:05;13.60;99.90
25436;DHT22;13363;52.772;-3.890;2023-08-30T04:06:31;13.60;99.90
25436;DHT22;13363;52.772;-3.890;2023-08-30T04:08:57;13.60;99.90
25436;DHT22;13363;52.772;-3.890;2023-08-30T04:11:23;13.60;99.90
25436;DHT22;13363;52.772;-3.890;2023-08-30T04:13:49;13.60;99.90
25436;DHT22;13363;52.772;-3.890;2023-08-30T04:16:15;13.60;99.90
25436;DHT22;13363;52.772;-3.890;2023-08-30T04:18:41;13.60;99.90
25436;DHT22;13363;52.772;-3.890;2023-08-30T04:21:06;13.60;99.90
25436;DHT22;13363;52.772;-3.890;2023-08-30T04:23:34;13.60;99.90
25436;DHT22;13363;52.772;-3.890;2023-08-30T04:26:00;13.50;99.90
25436;DHT22;13363;52.772;-3.890;2023-08-30T04:28:26;13.40;99.90
25436;DHT22;13363;52.772;-3.890;2023-08-30T04:30:56;13.40;99.90
25436;DHT22;13363;52.772;-3.890;2023-08-30T04:33:23;13.30;99.90
25436;DHT22;13363;52.772;-3.890;2023-08-30T04:35:53;13.20;99.90
25436;DHT22;13363;52.772;-3.890;2023-08-30T04:38:19;13.20;99.90
25436;DHT22;13363;52.772;-3.890;2023-08-30T04:43:12;13.20;99.90
25436;DHT22;13363;52.772;-3.890;2023-08-30T04:45:37;13.00;99.90
25436;DHT22;13363;52.772;-3.890;2023-08-30T04:48:04;12.90;99.90
25436;DHT22;13363;52.772;-3.890;2023-08-30T04:50:30;13.00;99.90
25436;DHT22;13363;52.772;-3.890;2023-08-30T04:52:56;12.90;99.90
25436;DHT22;13363;52.772;-3.890;2023-08-30T04:55:25;13.00;99.90
25436;DHT22;13363;52.772;-3.890;2023-08-30T04:57:51;13.00;99.90
25436;DHT22;13363;52.772;-3.890;2023-08-30T05:00:17;13.00;99.90
25436;DHT22;13363;52.772;-3.890;2023-08-30T05:02:44;13.10;99.90
25436;DHT22;13363;52.772;-3.890;2023-08-30T05:05:12;13.00;99.90
25436;DHT22;13363;52.772;-3.890;2023-08-30T05:07:38;13.10;99.90
25436;DHT22;13363;52.772;-3.890;2023-08-30T05:10:05;13.10;99.90
25436;DHT22;13363;52.772;-3.890;2023-08-30T05:12:33;13.20;99.90
25436;DHT22;13363;52.772;-3.890;2023-08-30T05:17:26;13.20;99.90
25436;DHT22;13363;52.772;-3.890;2023-08-30T05:24:46;13.20;99.90
25436;DHT22;13363;52.772;-3.890;2023-08-30T05:27:12;13.20;99.90
25436;DHT22;13363;52.772;-3.890;2023-08-30T05:29:38;13.10;99.90
25436;DHT22;13363;52.772;-3.890;2023-08-30T05:32:04;13.20;99.90
25436;DHT22;13363;52.772;-3.890;2023-08-30T05:34:30;13.20;99.90
25436;DHT22;13363;52.772;-3.890;2023-08-30T05:41:49;13.10;99.90
25436;DHT22;13363;52.772;-3.890;2023-08-30T05:44:14;13.00;99.90
25436;DHT22;13363;52.772;-3.890;2023-08-30T05:46:40;13.00;99.90
25436;DHT22;13363;52.772;-3.890;2023-08-30T05:49:06;13.00;99.90
25436;DHT22;13363;52.772;-3.890;2023-08-30T05:51:32;13.00;99.90
25436;DHT22;13363;52.772;-3.890;2023-08-30T05:53:58;13.00;99.90
25436;DHT22;13363;52.772;-3.890;2023-08-30T05:56:23;13.00;99.90
25436;DHT22;13363;52.772;-3.890;2023-08-30T05:58:49;13.00;99.90
25436;DHT22;13363;52.772;-3.890;2023-08-30T06:01:18;13.00;99.90
25436;DHT22;13363;52.772;-3.890;2023-08-30T06:03:44;13.10;99.90
25436;DHT22;13363;52.772;-3.890;2023-08-30T06:06:11;13.20;99.90
25436;DHT22;13363;52.772;-3.890;2023-08-30T06:08:37;13.30;99.90
25436;DHT22;13363;52.772;-3.890;2023-08-30T06:11:02;13.30;99.90
25436;DHT22;13363;52.772;-3.890;2023-08-30T06:13:28;13.40;99.90
25436;DHT22;13363;52.772;-3.890;2023-08-30T06:15:54;13.50;99.90
25436;DHT22;13363;52.772;-3.890;2023-08-30T06:18:20;13.50;99.90
25436;DHT22;13363;52.772;-3.890;2023-08-30T06:20:46;13.60;99.90
25436;DHT22;13363;52.772;-3.890;2023-08-30T06:23:14;13.60;99.90
25436;DHT22;13363;52.772;-3.890;2023-08-30T06:25:41;13.60;99.90
25436;DHT22;13363;52.772;-3.890;2023-08-30T06:28:06;13.80;99.90
25436;DHT22;13363;52.772;-3.890;2023-08-30T06:30:32;13.80;99.90
25436;DHT22;13363;52.772;-3.890;2023-08-30T06:32:58;13.80;99.90
25436;DHT22;13363;52.772;-3.890;2023-08-30T06:37:50;13.90;99.90
25436;DHT22;13363;52.772;-3.890;2023-08-30T06:40:16;14.00;99.90
25436;DHT22;13363;52.772;-3.890;2023-08-30T06:42:42;14.10;99.90
25436;DHT22;13363;52.772;-3.890;2023-08-30T06:45:08;14.20;99.90
25436;DHT22;13363;52.772;-3.890;2023-08-30T06:47:34;14.30;99.90
25436;DHT22;13363;52.772;-3.890;2023-08-30T06:50:00;14.40;99.90
25436;DHT22;13363;52.772;-3.890;2023-08-30T06:52:26;14.50;99.90
25436;DHT22;13363;52.772;-3.890;2023-08-30T06:54:52;14.50;99.90
25436;DHT22;13363;52.772;-3.890;2023-08-30T06:57:18;14.50;99.90
25436;DHT22;13363;52.772;-3.890;2023-08-30T06:59:44;14.50;99.90
25436;DHT22;13363;52.772;-3.890;2023-08-30T07:02:10;14.60;99.90
25436;DHT22;13363;52.772;-3.890;2023-08-30T07:04:35;14.60;99.90
25436;DHT22;13363;52.772;-3.890;2023-08-30T07:07:01;14.60;99.90
25436;DHT22;13363;52.772;-3.890;2023-08-30T07:09:27;14.70;99.90
25436;DHT22;13363;52.772;-3.890;2023-08-30T07:11:58;14.70;99.90
25436;DHT22;13363;52.772;-3.890;2023-08-30T07:14:23;14.90;99.90
25436;DHT22;13363;52.772;-3.890;2023-08-30T07:16:49;14.90;99.90
25436;DHT22;13363;52.772;-3.890;2023-08-30T07:19:18;14.90;99.90
25436;DHT22;13363;52.772;-3.890;2023-08-30T07:21:44;14.90;99.90
25436;DHT22;13363;52.772;-3.890;2023-08-30T07:24:10;14.90;99.90
25436;DHT22;13363;52.772;-3.890;2023-08-30T07:26:36;15.10;99.90
25436;DHT22;13363;52.772;-3.890;2023-08-30T07:29:03;15.20;99.90
25436;DHT22;13363;52.772;-3.890;2023-08-30T07:31:32;15.40;99.90
25436;DHT22;13363;52.772;-3.890;2023-08-30T07:33:58;15.70;99.90
25436;DHT22;13363;52.772;-3.890;2023-08-30T07:36:26;16.10;99.90
25436;DHT22;13363;52.772;-3.890;2023-08-30T07:38:52;16.60;99.90
25436;DHT22;13363;52.772;-3.890;2023-08-30T07:41:18;16.90;99.90
25436;DHT22;13363;52.772;-3.890;2023-08-30T07:43:43;17.20;99.90
25436;DHT22;13363;52.772;-3.890;2023-08-30T07:48:35;16.90;99.90
25436;DHT22;13363;52.772;-3.890;2023-08-30T07:51:02;16.60;99.90
25436;DHT22;13363;52.772;-3.890;2023-08-30T07:53:28;16.50;99.90
25436;DHT22;13363;52.772;-3.890;2023-08-30T07:55:54;16.30;99.90
25436;DHT22;13363;52.772;-3.890;2023-08-30T07:58:19;16.10;99.90
25436;DHT22;13363;52.772;-3.890;2023-08-30T08:00:45;16.00;99.90
25436;DHT22;13363;52.772;-3.890;2023-08-30T08:03:11;15.90;99.90
25436;DHT22;13363;52.772;-3.890;2023-08-30T08:05:37;15.70;99.90
25436;DHT22;13363;52.772;-3.890;2023-08-30T08:08:03;15.60;99.90
25436;DHT22;13363;52.772;-3.890;2023-08-30T08:10:32;15.60;99.90
25436;DHT22;13363;52.772;-3.890;2023-08-30T08:13:01;15.60;99.90
25436;DHT22;13363;52.772;-3.890;2023-08-30T08:15:29;15.70;99.90
25436;DHT22;13363;52.772;-3.890;2023-08-30T08:17:57;15.70;99.90
25436;DHT22;13363;52.772;-3.890;2023-08-30T08:20:22;15.60;99.90
25436;DHT22;13363;52.772;-3.890;2023-08-30T08:22:48;15.70;99.90
25436;DHT22;13363;52.772;-3.890;2023-08-30T08:25:14;15.70;99.90
25436;DHT22;13363;52.772;-3.890;2023-08-30T08:27:42;15.80;99.90
25436;DHT22;13363;52.772;-3.890;2023-08-30T08:30:08;15.90;99.90
25436;DHT22;13363;52.772;-3.890;2023-08-30T08:32:35;16.00;99.90
25436;DHT22;13363;52.772;-3.890;2023-08-30T08:35:01;16.10;99.90
25436;DHT22;13363;52.772;-3.890;2023-08-30T08:37:28;16.10;99.90
25436;DHT22;13363;52.772;-3.890;2023-08-30T08:39:54;16.20;99.90
25436;DHT22;13363;52.772;-3.890;2023-08-30T08:42:20;17.80;99.90
25436;DHT22;13363;52.772;-3.890;2023-08-30T08:44:51;16.70;99.90
25436;DHT22;13363;52.772;-3.890;2023-08-30T08:47:20;16.70;99.90
25436;DHT22;13363;52.772;-3.890;2023-08-30T08:49:47;16.90;99.90
25436;DHT22;13363;52.772;-3.890;2023-08-30T08:52:14;17.20;99.90
25436;DHT22;13363;52.772;-3.890;2023-08-30T08:54:40;17.10;99.90
25436;DHT22;13363;52.772;-3.890;2023-08-30T08:57:07;17.00;99.90
25436;DHT22;13363;52.772;-3.890;2023-08-30T08:59:33;16.70;99.90
25436;DHT22;13363;52.772;-3.890;2023-08-30T09:02:00;16.50;99.90
25436;DHT22;13363;52.772;-3.890;2023-08-30T09:04:26;16.40;99.90
25436;DHT22;13363;52.772;-3.890;2023-08-30T09:06:54;16.30;99.90
25436;DHT22;13363;52.772;-3.890;2023-08-30T09:09:20;16.30;99.90
25436;DHT22;13363;52.772;-3.890;2023-08-30T09:11:47;16.30;99.90
25436;DHT22;13363;52.772;-3.890;2023-08-30T09:14:13;16.50;99.90
25436;DHT22;13363;52.772;-3.890;2023-08-30T09:16:38;16.80;99.90
25436;DHT22;13363;52.772;-3.890;2023-08-30T09:21:31;17.50;99.90
25436;DHT22;13363;52.772;-3.890;2023-08-30T09:23:59;18.10;99.90
25436;DHT22;13363;52.772;-3.890;2023-08-30T09:26:26;18.60;99.90
25436;DHT22;13363;52.772;-3.890;2023-08-30T09:31:20;18.60;99.90
25436;DHT22;13363;52.772;-3.890;2023-08-30T09:33:46;18.80;99.90
25436;DHT22;13363;52.772;-3.890;2023-08-30T09:36:15;19.30;99.90
25436;DHT22;13363;52.772;-3.890;2023-08-30T09:38:40;19.80;99.90
25436;DHT22;13363;52.772;-3.890;2023-08-30T09:41:09;20.00;99.90
25436;DHT22;13363;52.772;-3.890;2023-08-30T09:43:44;20.20;99.90
25436;DHT22;13363;52.772;-3.890;2023-08-30T09:46:17;20.50;99.90
25436;DHT22;13363;52.772;-3.890;2023-08-30T09:48:46;20.70;99.90
25436;DHT22;13363;52.772;-3.890;2023-08-30T09:51:17;20.70;99.90
25436;DHT22;13363;52.772;-3.890;2023-08-30T09:53:50;20.60;99.90
25436;DHT22;13363;52.772;-3.890;2023-08-30T09:56:22;20.60;99.90
25436;DHT22;13363;52.772;-3.890;2023-08-30T09:58:48;20.40;99.90
25436;DHT22;13363;52.772;-3.890;2023-08-30T10:01:14;20.00;99.90
25436;DHT22;13363;52.772;-3.890;2023-08-30T10:11:02;18.00;99.90
25436;DHT22;13363;52.772;-3.890;2023-08-30T10:13:31;18.00;99.90
25436;DHT22;13363;52.772;-3.890;2023-08-30T10:16:01;18.80;99.90
25436;DHT22;13363;52.772;-3.890;2023-08-30T10:18:32;18.80;99.90
25436;DHT22;13363;52.772;-3.890;2023-08-30T10:20:59;19.30;99.90
25436;DHT22;13363;52.772;-3.890;2023-08-30T10:23:27;19.80;99.90
25436;DHT22;13363;52.772;-3.890;2023-08-30T10:25:54;19.70;99.90
25436;DHT22;13363;52.772;-3.890;2023-08-30T10:28:21;19.40;99.90
25436;DHT22;13363;52.772;-3.890;2023-08-30T10:33:15;18.90;99.90
25436;DHT22;13363;52.772;-3.890;2023-08-30T10:35:49;18.80;99.90
25436;DHT22;13363;52.772;-3.890;2023-08-30T10:41:05;19.10;99.90
25436;DHT22;13363;52.772;-3.890;2023-08-30T10:43:34;19.10;99.90
25436;DHT22;13363;52.772;-3.890;2023-08-30T10:46:01;19.20;99.90
25436;DHT22;13363;52.772;-3.890;2023-08-30T10:48:38;19.20;99.90
25436;DHT22;13363;52.772;-3.890;2023-08-30T10:51:18;19.40;99.90
25436;DHT22;13363;52.772;-3.890;2023-08-30T10:53:55;19.40;99.90
25436;DHT22;13363;52.772;-3.890;2023-08-30T10:56:28;19.50;99.90
25436;DHT22;13363;52.772;-3.890;2023-08-30T10:58:55;19.70;99.90
25436;DHT22;13363;52.772;-3.890;2023-08-30T11:01:23;19.90;99.90
25436;DHT22;13363;52.772;-3.890;2023-08-30T11:03:49;20.60;99.90
25436;DHT22;13363;52.772;-3.890;2023-08-30T11:06:16;20.60;99.90
25436;DHT22;13363;52.772;-3.890;2023-08-30T11:08:43;20.40;99.90
25436;DHT22;13363;52.772;-3.890;2023-08-30T11:11:10;20.20;1.00
25436;DHT22;13363;52.772;-3.890;2023-08-30T11:13:37;19.20;99.90
25436;DHT22;13363;52.772;-3.890;2023-08-30T11:16:03;19.80;99.90
25436;DHT22;13363;52.772;-3.890;2023-08-30T11:18:39;19.70;1.00
25436;DHT22;13363;52.772;-3.890;2023-08-30T11:21:06;19.40;24.90
25436;DHT22;13363;52.772;-3.890;2023-08-30T11:23:34;19.30;99.90
25436;DHT22;13363;52.772;-3.890;2023-08-30T11:26:00;18.90;99.90
25436;DHT22;13363;52.772;-3.890;2023-08-30T11:28:29;18.80;1.00
25436;DHT22;13363;52.772;-3.890;2023-08-30T11:30:55;18.90;1.00
25436;DHT22;13363;52.772;-3.890;2023-08-30T11:33:21;19.40;1.00
25436;DHT22;13363;52.772;-3.890;2023-08-30T11:35:50;19.30;1.00
25436;DHT22;13363;52.772;-3.890;2023-08-30T11:38:17;19.70;1.00
25436;DHT22;13363;52.772;-3.890;2023-08-30T11:40:44;19.70;1.00
25436;DHT22;13363;52.772;-3.890;2023-08-30T11:43:10;20.10;99.90
25436;DHT22;13363;52.772;-3.890;2023-08-30T11:45:36;20.00;1.00
25436;DHT22;13363;52.772;-3.890;2023-08-30T11:50:29;19.00;1.00
25436;DHT22;13363;52.772;-3.890;2023-08-30T11:52:55;19.00;1.00
25436;DHT22;13363;52.772;-3.890;2023-08-30T11:55:22;19.40;1.00
25436;DHT22;13363;52.772;-3.890;2023-08-30T11:57:52;19.70;99.90
25436;DHT22;13363;52.772;-3.890;2023-08-30T12:00:19;20.50;99.90
25436;DHT22;13363;52.772;-3.890;2023-08-30T12:02:46;20.40;1.00
25436;DHT22;13363;52.772;-3.890;2023-08-30T12:10:09;20.20;5.80
25436;DHT22;13363;52.772;-3.890;2023-08-30T12:12:36;20.00;99.90
25436;DHT22;13363;52.772;-3.890;2023-08-30T12:15:08;20.20;99.90
25436;DHT22;13363;52.772;-3.890;2023-08-30T12:17:35;20.30;99.90
25436;DHT22;13363;52.772;-3.890;2023-08-30T12:20:01;20.60;99.90
25436;DHT22;13363;52.772;-3.890;2023-08-30T12:22:40;20.80;1.00
25436;DHT22;13363;52.772;-3.890;2023-08-30T12:25:17;21.10;99.90
25436;DHT22;13363;52.772;-3.890;2023-08-30T12:27:43;21.20;99.90
25436;DHT22;13363;52.772;-3.890;2023-08-30T12:30:09;21.30;1.00
25436;DHT22;13363;52.772;-3.890;2023-08-30T12:32:35;21.20;1.00
25436;DHT22;13363;52.772;-3.890;2023-08-30T12:35:01;21.30;1.00
25436;DHT22;13363;52.772;-3.890;2023-08-30T12:37:27;20.70;99.90
25436;DHT22;13363;52.772;-3.890;2023-08-30T12:39:53;20.30;1.00
25436;DHT22;13363;52.772;-3.890;2023-08-30T12:42:19;19.50;1.00
25436;DHT22;13363;52.772;-3.890;2023-08-30T12:44:45;19.00;99.90
25436;DHT22;13363;52.772;-3.890;2023-08-30T12:47:11;18.60;20.70
25436;DHT22;13363;52.772;-3.890;2023-08-30T12:49:40;18.50;1.00
25436;DHT22;13363;52.772;-3.890;2023-08-30T12:52:06;18.70;1.00
25436;DHT22;13363;52.772;-3.890;2023-08-30T12:54:32;18.80;1.00
25436;DHT22;13363;52.772;-3.890;2023-08-30T12:56:58;18.80;1.00
25436;DHT22;13363;52.772;-3.890;2023-08-30T13:01:50;18.60;99.90
25436;DHT22;13363;52.772;-3.890;2023-08-30T13:04:16;18.60;1.00
25436;DHT22;13363;52.772;-3.890;2023-08-30T13:06:42;18.70;99.90
25436;DHT22;13363;52.772;-3.890;2023-08-30T13:11:33;18.90;1.00
25436;DHT22;13363;52.772;-3.890;2023-08-30T13:13:59;19.00;99.90
25436;DHT22;13363;52.772;-3.890;2023-08-30T13:16:25;18.70;99.90
25436;DHT22;13363;52.772;-3.890;2023-08-30T13:18:51;18.30;99.90
25436;DHT22;13363;52.772;-3.890;2023-08-30T13:21:17;18.40;1.00
25436;DHT22;13363;52.772;-3.890;2023-08-30T13:23:43;18.50;1.00
25436;DHT22;13363;52.772;-3.890;2023-08-30T13:26:08;18.60;1.00
25436;DHT22;13363;52.772;-3.890;2023-08-30T13:28:35;18.80;1.00
25436;DHT22;13363;52.772;-3.890;2023-08-30T13:31:01;18.80;99.90
25436;DHT22;13363;52.772;-3.890;2023-08-30T13:35:53;18.90;1.00
25436;DHT22;13363;52.772;-3.890;2023-08-30T13:43:11;18.80;1.00
25436;DHT22;13363;52.772;-3.890;2023-08-30T13:45:37;18.90;1.00
25436;DHT22;13363;52.772;-3.890;2023-08-30T13:48:03;19.20;1.00
25436;DHT22;13363;52.772;-3.890;2023-08-30T13:52:57;18.90;1.00
25436;DHT22;13363;52.772;-3.890;2023-08-30T13:55:23;19.20;23.70
25436;DHT22;13363;52.772;-3.890;2023-08-30T13:57:49;18.80;1.00
25436;DHT22;13363;52.772;-3.890;2023-08-30T14:02:41;18.60;1.00
25436;DHT22;13363;52.772;-3.890;2023-08-30T14:05:07;17.70;42.60
25436;DHT22;13363;52.772;-3.890;2023-08-30T14:07:34;18.70;1.00
25436;DHT22;13363;52.772;-3.890;2023-08-30T14:09:59;18.90;58.00
25436;DHT22;13363;52.772;-3.890;2023-08-30T14:12:25;19.10;1.00
25436;DHT22;13363;52.772;-3.890;2023-08-30T14:17:19;18.90;1.00
25436;DHT22;13363;52.772;-3.890;2023-08-30T14:22:11;19.00;1.00
25436;DHT22;13363;52.772;-3.890;2023-08-30T14:24:36;18.60;99.90
25436;DHT22;13363;52.772;-3.890;2023-08-30T14:27:03;18.60;1.00
25436;DHT22;13363;52.772;-3.890;2023-08-30T14:39:14;18.90;1.00
25436;DHT22;13363;52.772;-3.890;2023-08-30T14:41:40;18.90;1.00
25436;DHT22;13363;52.772;-3.890;2023-08-30T14:44:07;19.30;99.90
25436;DHT22;13363;52.772;-3.890;2023-08-30T14:46:33;19.30;99.90
25436;DHT22;13363;52.772;-3.890;2023-08-30T14:48:59;19.10;99.90
25436;DHT22;13363;52.772;-3.890;2023-08-30T14:51:25;19.40;99.90
25436;DHT22;13363;52.772;-3.890;2023-08-30T14:53:51;19.20;99.90
25436;DHT22;13363;52.772;-3.890;2023-08-30T15:01:15;19.00;1.00
25436;DHT22;13363;52.772;-3.890;2023-08-30T15:03:42;18.80;99.90
25436;DHT22;13363;52.772;-3.890;2023-08-30T15:06:08;19.00;99.90
25436;DHT22;13363;52.772;-3.890;2023-08-30T15:11:00;18.50;99.90
25436;DHT22;13363;52.772;-3.890;2023-08-30T15:13:28;18.40;99.90
25436;DHT22;13363;52.772;-3.890;2023-08-30T15:15:54;18.40;99.90
25436;DHT22;13363;52.772;-3.890;2023-08-30T15:18:20;18.50;1.00
25436;DHT22;13363;52.772;-3.890;2023-08-30T15:20:46;18.60;1.00
25436;DHT22;13363;52.772;-3.890;2023-08-30T15:23:13;18.40;99.90
25436;DHT22;13363;52.772;-3.890;2023-08-30T15:25:48;18.40;99.90
25436;DHT22;13363;52.772;-3.890;2023-08-30T15:28:15;18.40;99.90
25436;DHT22;13363;52.772;-3.890;2023-08-30T15:30:47;18.60;1.00
25436;DHT22;13363;52.772;-3.890;2023-08-30T15:33:16;18.60;99.90
25436;DHT22;13363;52.772;-3.890;2023-08-30T15:35:43;18.30;99.90
25436;DHT22;13363;52.772;-3.890;2023-08-30T15:40:38;18.20;1.00
25436;DHT22;13363;52.772;-3.890;2023-08-30T15:43:05;18.20;1.00
25436;DHT22;13363;52.772;-3.890;2023-08-30T15:45:31;18.10;1.00
25436;DHT22;13363;52.772;-3.890;2023-08-30T15:47:57;18.30;1.00
25436;DHT22;13363;52.772;-3.890;2023-08-30T15:50:23;18.30;1.00
25436;DHT22;13363;52.772;-3.890;2023-08-30T15:55:15;18.20;99.90
25436;DHT22;13363;52.772;-3.890;2023-08-30T15:57:41;18.20;1.00
25436;DHT22;13363;52.772;-3.890;2023-08-30T16:00:07;18.20;1.00
25436;DHT22;13363;52.772;-3.890;2023-08-30T16:02:33;18.00;99.90
25436;DHT22;13363;52.772;-3.890;2023-08-30T16:04:59;18.00;1.00
25436;DHT22;13363;52.772;-3.890;2023-08-30T16:07:25;18.00;1.00
25436;DHT22;13363;52.772;-3.890;2023-08-30T16:09:51;18.00;1.00
25436;DHT22;13363;52.772;-3.890;2023-08-30T16:12:17;18.00;1.00
25436;DHT22;13363;52.772;-3.890;2023-08-30T16:14:43;18.00;1.00
25436;DHT22;13363;52.772;-3.890;2023-08-30T16:17:09;18.00;99.90
25436;DHT22;13363;52.772;-3.890;2023-08-30T16:22:02;18.00;99.90
25436;DHT22;13363;52.772;-3.890;2023-08-30T16:24:28;17.90;99.90
25436;DHT22;13363;52.772;-3.890;2023-08-30T16:26:54;18.00;1.00
25436;DHT22;13363;52.772;-3.890;2023-08-30T16:34:19;18.20;1.00
25436;DHT22;13363;52.772;-3.890;2023-08-30T16:36:46;18.10;1.00
25436;DHT22;13363;52.772;-3.890;2023-08-30T16:39:14;18.30;1.00
25436;DHT22;13363;52.772;-3.890;2023-08-30T16:41:41;18.20;1.00
25436;DHT22;13363;52.772;-3.890;2023-08-30T16:46:33;18.10;1.00
25436;DHT22;13363;52.772;-3.890;2023-08-30T16:51:28;18.20;1.00
25436;DHT22;13363;52.772;-3.890;2023-08-30T16:58:46;18.30;1.00
25436;DHT22;13363;52.772;-3.890;2023-08-30T17:01:11;18.30;1.00
25436;DHT22;13363;52.772;-3.890;2023-08-30T17:06:04;18.00;1.00
25436;DHT22;13363;52.772;-3.890;2023-08-30T17:08:31;18.10;1.00
25436;DHT22;13363;52.772;-3.890;2023-08-30T17:11:06;18.20;1.00
25436;DHT22;13363;52.772;-3.890;2023-08-30T17:13:33;18.20;1.00
25436;DHT22;13363;52.772;-3.890;2023-08-30T17:16:00;18.00;1.00
25436;DHT22;13363;52.772;-3.890;2023-08-30T17:18:26;17.70;99.90
25436;DHT22;13363;52.772;-3.890;2023-08-30T17:20:54;17.70;1.00